Terminal Aerodrome Forecast
Issued by NWS Melbourne, FL

Current Version | Previous Version | Text Only | Print | Product List | Glossary On
Versions: 1 2 3 4 5 6 7 8 9 10 11 12
316
FTUS42 KMLB 042333
TAFDAB
TAF
KDAB 042333Z 0500/0524 13003KT P6SM FEW035
     FM050800 17003KT P6SM SCT004 BKN008
     FM051300 16006KT P6SM SCT010 BKN015
     FM051500 17010KT P6SM SCT025=

USA.gov is the U.S. government's official web portal to all federal, state and local government web resources and services.